Check out our new BloomSky Weather System.

Active alerts


No alerts


Thunder radar  blitzortung!


Rain radar more information rain snow radar


Visit our other weather sites:

Template documentation
and downloads

And another site



Weather Underground History page Text

Daily Summary for October 23, 2017 Units:  English    Metric   Both
« Previous Day
Next Day »
Daily Weekly Monthly Yearly Custom
  High: Low: Average:
Temperature: 80.2 °F 48.7 °F 63.6 °F
Dew Point: 58.3 °F 45.7 °F 52 °F
Humidity: 98 % 33 % 71 %
Wind Speed: 5.0 mph 0.0 mph 0.5 mph
Wind Gust: 6.0 mph - -
Wind:- - SW
Pressure: 30.15 in 30.03 in -
Precipitation: 0.00 in    
Historical Graphs
 
 
Tabular Data for October 23, 2017
Time Temperature Dew Point Pressure Wind Wind Speed Wind Gust Humidity Rainfall Rate (Hourly)
00:02 58.5 °F 52.7 °F 30.13 in Calm     81 % 0.00 in
00:07 58.5 °F 53.1 °F 30.13 in Calm   1.0 mph 82 % 0.00 in
00:12 58.6 °F 53.2 °F 30.13 in Calm   1.0 mph 82 % 0.00 in
00:17 58.5 °F 53.2 °F 30.13 in Calm   1.0 mph 83 % 0.00 in
00:22 58.3 °F 53.4 °F 30.13 in Calm   1.0 mph 84 % 0.00 in
00:27 58.5 °F 53.2 °F 30.13 in Calm   2.0 mph 83 % 0.00 in
00:32 58.5 °F 53.2 °F 30.13 in Calm   2.0 mph 83 % 0.00 in
00:37 57.9 °F 53.1 °F 30.13 in Calm   2.0 mph 84 % 0.00 in
00:43 57.9 °F 53.1 °F 30.13 in Calm     84 % 0.00 in
00:48 57.6 °F 52.7 °F 30.13 in Calm     84 % 0.00 in
00:53 57.2 °F 52.7 °F 30.13 in Calm     85 % 0.00 in
00:58 56.8 °F 52.3 °F 30.13 in Calm     85 % 0.00 in
01:03 56.5 °F 52.7 °F 30.13 in Calm     87 % 0.00 in
01:08 56.5 °F 52.7 °F 30.13 in Calm     87 % 0.00 in
01:13 56.5 °F 52.7 °F 30.13 in Calm     87 % 0.00 in
01:18 56.8 °F 53.1 °F 30.13 in Calm     87 % 0.00 in
01:23 57.0 °F 52.9 °F 30.13 in Calm     86 % 0.00 in
01:28 56.8 °F 52.7 °F 30.13 in Calm     86 % 0.00 in
01:33 56.8 °F 53.1 °F 30.13 in Calm   1.0 mph 87 % 0.00 in
01:38 56.8 °F 53.1 °F 30.13 in Calm   1.0 mph 87 % 0.00 in
01:43 56.7 °F 52.9 °F 30.13 in Calm   1.0 mph 87 % 0.00 in
01:48 56.1 °F 52.3 °F 30.13 in Calm     87 % 0.00 in
01:53 55.6 °F 51.8 °F 30.13 in Calm     87 % 0.00 in
01:58 54.9 °F 51.4 °F 30.13 in Calm     88 % 0.00 in
02:03 54.7 °F 51.4 °F 30.13 in Calm     89 % 0.00 in
02:08 54.3 °F 51.4 °F 30.13 in Calm     90 % 0.00 in
02:13 54.0 °F 51.4 °F 30.13 in Calm     91 % 0.00 in
02:18 54.0 °F 51.6 °F 30.12 in Calm     92 % 0.00 in
02:23 53.8 °F 51.4 °F 30.12 in Calm     92 % 0.00 in
02:28 53.4 °F 51.1 °F 30.12 in Calm     92 % 0.00 in
02:33 53.2 °F 51.3 °F 30.12 in Calm     93 % 0.00 in
02:38 53.2 °F 51.6 °F 30.13 in Calm     94 % 0.00 in
02:43 53.1 °F 51.4 °F 30.13 in Calm     94 % 0.00 in
02:48 52.9 °F 51.3 °F 30.13 in Calm     94 % 0.00 in
02:53 52.5 °F 50.9 °F 30.13 in Calm     94 % 0.00 in
02:58 52.3 °F 50.7 °F 30.13 in Calm     94 % 0.00 in
03:03 52.2 °F 50.5 °F 30.13 in Calm     94 % 0.00 in
03:08 52.0 °F 50.4 °F 30.12 in Calm     94 % 0.00 in
03:13 51.6 °F 50.0 °F 30.12 in Calm     94 % 0.00 in
03:18 51.4 °F 50.0 °F 30.12 in Calm     95 % 0.00 in
03:23 51.4 °F 50.0 °F 30.13 in Calm     95 % 0.00 in
03:28 51.4 °F 50.4 °F 30.12 in Calm     96 % 0.00 in
03:33 51.6 °F 50.5 °F 30.12 in Calm     96 % 0.00 in
03:38 52.0 °F 51.1 °F 30.12 in Calm     97 % 0.00 in
03:43 52.2 °F 51.1 °F 30.12 in Calm     96 % 0.00 in
03:48 52.0 °F 50.9 °F 30.12 in Calm     96 % 0.00 in
03:53 52.0 °F 51.1 °F 30.12 in Calm     97 % 0.00 in
03:58 52.0 °F 51.1 °F 30.12 in Calm     97 % 0.00 in
04:03 51.8 °F 50.7 °F 30.12 in Calm     96 % 0.00 in
04:08 51.6 °F 50.5 °F 30.12 in Calm     96 % 0.00 in
04:14 51.4 °F 50.5 °F 30.12 in Calm     97 % 0.00 in
04:18 51.6 °F 50.7 °F 30.12 in Calm     97 % 0.00 in
04:23 51.8 °F 50.9 °F 30.12 in Calm     97 % 0.00 in
04:28 51.6 °F 50.7 °F 30.12 in Calm     97 % 0.00 in
04:33 51.8 °F 50.9 °F 30.12 in Calm     97 % 0.00 in
04:38 52.0 °F 51.1 °F 30.12 in Calm     97 % 0.00 in
04:43 52.0 °F 51.1 °F 30.12 in Calm     97 % 0.00 in
04:48 52.2 °F 51.3 °F 30.12 in Calm     97 % 0.00 in
04:53 52.3 °F 51.3 °F 30.12 in Calm     96 % 0.00 in
04:58 52.3 °F 51.3 °F 30.12 in Calm   1.0 mph 96 % 0.00 in
05:03 52.3 °F 50.9 °F 30.12 in North 2.0 mph 2.0 mph 95 % 0.00 in
05:08 52.5 °F 51.1 °F 30.12 in NNW 1.0 mph 2.0 mph 95 % 0.00 in
05:13 52.9 °F 51.3 °F 30.12 in Calm   2.0 mph 94 % 0.00 in
05:18 52.9 °F 51.3 °F 30.11 in Calm   2.0 mph 94 % 0.00 in
05:23 52.9 °F 50.9 °F 30.12 in Calm   2.0 mph 93 % 0.00 in
05:28 53.1 °F 51.1 °F 30.12 in Calm   2.0 mph 93 % 0.00 in
05:33 52.9 °F 50.5 °F 30.12 in Calm   1.0 mph 92 % 0.00 in
05:38 52.7 °F 50.7 °F 30.12 in Calm   1.0 mph 93 % 0.00 in
05:43 52.5 °F 50.5 °F 30.12 in Calm     93 % 0.00 in
05:49 52.5 °F 50.5 °F 30.11 in Calm     93 % 0.00 in
05:59 52.2 °F 50.2 °F 30.11 in Calm   1.0 mph 93 % 0.00 in
06:04 52.2 °F 50.2 °F 30.12 in Calm   2.0 mph 93 % 0.00 in
06:09 52.3 °F 50.4 °F 30.12 in Calm   2.0 mph 93 % 0.00 in
06:14 52.5 °F 50.2 °F 30.12 in Calm   2.0 mph 92 % 0.00 in
06:19 52.5 °F 50.2 °F 30.12 in Calm   2.0 mph 92 % 0.00 in
06:24 52.3 °F 50.0 °F 30.12 in Calm   2.0 mph 92 % 0.00 in
06:29 52.2 °F 49.8 °F 30.12 in Calm   2.0 mph 92 % 0.00 in
06:34 51.8 °F 49.6 °F 30.12 in Calm   1.0 mph 92 % 0.00 in
06:39 51.6 °F 49.6 °F 30.12 in Calm   1.0 mph 93 % 0.00 in
06:40 51.6 °F 49.6 °F 30.12 in Calm   1.0 mph 93 % 0.00 in
06:45 51.3 °F 49.3 °F 30.12 in Calm     93 % 0.00 in
06:50 50.7 °F 48.7 °F 30.12 in Calm     93 % 0.00 in
06:55 50.4 °F 48.4 °F 30.12 in Calm     93 % 0.00 in
07:00 50.2 °F 48.6 °F 30.12 in Calm     94 % 0.00 in
07:01 50.0 °F 48.4 °F 30.12 in Calm     94 % 0.00 in
07:06 49.8 °F 48.2 °F 30.12 in Calm     94 % 0.00 in
07:11 49.5 °F 47.8 °F 30.12 in Calm     94 % 0.00 in
07:16 49.5 °F 48.0 °F 30.13 in Calm     95 % 0.00 in
07:21 49.6 °F 48.6 °F 30.13 in Calm     96 % 0.00 in
07:26 49.5 °F 48.0 °F 30.13 in Calm     95 % 0.00 in
07:31 49.5 °F 48.4 °F 30.13 in Calm     96 % 0.00 in
07:36 49.5 °F 48.4 °F 30.13 in Calm     96 % 0.00 in
07:41 49.3 °F 48.2 °F 30.13 in Calm     96 % 0.00 in
07:46 48.9 °F 47.8 °F 30.13 in Calm     96 % 0.00 in
07:51 48.9 °F 47.8 °F 30.13 in Calm     96 % 0.00 in
07:56 48.7 °F 47.7 °F 30.13 in Calm     96 % 0.00 in
08:01 48.7 °F 47.7 °F 30.13 in Calm     96 % 0.00 in
08:06 48.9 °F 47.8 °F 30.13 in Calm     96 % 0.00 in
08:11 49.1 °F 48.2 °F 30.13 in Calm     97 % 0.00 in
08:13 49.5 °F 48.6 °F 30.13 in Calm     97 % 0.00 in
08:18 50.2 °F 49.6 °F 30.13 in Calm     98 % 0.00 in
08:23 50.7 °F 50.2 °F 30.13 in Calm     98 % 0.00 in
08:28 52.2 °F 51.6 °F 30.13 in Calm     98 % 0.00 in
08:33 53.1 °F 52.5 °F 30.13 in Calm     98 % 0.00 in
08:38 54.3 °F 53.8 °F 30.13 in Calm   1.0 mph 98 % 0.00 in
08:43 56.5 °F 55.9 °F 30.13 in Calm   1.0 mph 98 % 0.00 in
08:48 58.1 °F 57.2 °F 30.13 in Calm   1.0 mph 97 % 0.00 in
08:53 59.7 °F 57.9 °F 30.14 in Calm   1.0 mph 94 % 0.00 in
08:58 61.2 °F 58.3 °F 30.14 in Calm   1.0 mph 90 % 0.00 in
09:03 62.2 °F 58.3 °F 30.14 in Calm   1.0 mph 87 % 0.00 in
09:08 63.3 °F 58.1 °F 30.14 in Calm   1.0 mph 83 % 0.00 in
09:13 64.2 °F 58.3 °F 30.14 in SW 1.0 mph 1.0 mph 81 % 0.00 in
09:19 64.8 °F 58.1 °F 30.15 in Calm   1.0 mph 79 % 0.00 in
09:24 65.7 °F 57.9 °F 30.15 in Calm   1.0 mph 76 % 0.00 in
09:29 65.7 °F 57.2 °F 30.15 in Calm   1.0 mph 74 % 0.00 in
09:34 66.0 °F 57.6 °F 30.15 in Calm   2.0 mph 74 % 0.00 in
09:39 66.7 °F 57.0 °F 30.15 in Calm   2.0 mph 71 % 0.00 in
09:44 67.1 °F 57.7 °F 30.15 in Calm   2.0 mph 72 % 0.00 in
09:49 67.3 °F 56.3 °F 30.15 in Calm   1.0 mph 68 % 0.00 in
09:54 66.6 °F 56.5 °F 30.15 in ESE 3.0 mph 3.0 mph 70 % 0.00 in
09:59 66.4 °F 55.6 °F 30.15 in SSE 1.0 mph 3.0 mph 68 % 0.00 in
10:04 67.3 °F 56.3 °F 30.15 in SSE 2.0 mph 3.0 mph 68 % 0.00 in
10:09 67.6 °F 55.9 °F 30.15 in SSE 1.0 mph 3.0 mph 66 % 0.00 in
10:14 67.8 °F 55.6 °F 30.15 in Calm   3.0 mph 65 % 0.00 in
10:19 68.7 °F 56.5 °F 30.15 in East 1.0 mph 3.0 mph 65 % 0.00 in
10:24 69.4 °F 55.9 °F 30.15 in Calm   3.0 mph 62 % 0.00 in
10:29 69.1 °F 55.0 °F 30.15 in ESE 2.0 mph 3.0 mph 61 % 0.00 in
10:34 69.1 °F 55.0 °F 30.15 in Calm   4.0 mph 61 % 0.00 in
10:44 70.2 °F 52.7 °F 30.14 in ESE 2.0 mph 4.0 mph 54 % 0.00 in
10:54 69.6 °F 53.8 °F 30.15 in Calm   4.0 mph 57 % 0.00 in
10:59 70.3 °F 54.3 °F 30.14 in SSE 1.0 mph 6.0 mph 57 % 0.00 in
11:04 71.2 °F 53.2 °F 30.14 in SSW 2.0 mph 6.0 mph 53 % 0.00 in
11:09 71.6 °F 53.1 °F 30.14 in South 4.0 mph 6.0 mph 52 % 0.00 in
11:14 71.6 °F 52.5 °F 30.15 in SSW 2.0 mph 5.0 mph 51 % 0.00 in
11:20 72.3 °F 52.7 °F 30.15 in SSW 1.0 mph 5.0 mph 50 % 0.00 in
11:25 72.5 °F 51.1 °F 30.14 in ENE 2.0 mph 5.0 mph 47 % 0.00 in
11:30 72.0 °F 51.8 °F 30.14 in SE 2.0 mph 4.0 mph 49 % 0.00 in
11:35 72.3 °F 52.2 °F 30.14 in SE 2.0 mph 4.0 mph 49 % 0.00 in
11:40 72.9 °F 51.4 °F 30.14 in SE 2.0 mph 4.0 mph 47 % 0.00 in
11:45 73.4 °F 50.7 °F 30.14 in East 1.0 mph 4.0 mph 45 % 0.00 in
11:50 73.8 °F 51.1 °F 30.14 in ESE 2.0 mph 4.0 mph 45 % 0.00 in
11:55 74.3 °F 51.6 °F 30.14 in ENE 3.0 mph 4.0 mph 45 % 0.00 in
12:00 73.9 °F 50.0 °F 30.14 in NW 2.0 mph 5.0 mph 43 % 0.00 in
12:05 72.7 °F 49.5 °F 30.14 in WNW 1.0 mph 5.0 mph 44 % 0.00 in
12:10 73.0 °F 51.6 °F 30.14 in SSE 2.0 mph 5.0 mph 47 % 0.00 in
12:15 74.1 °F 50.9 °F 30.14 in ESE 1.0 mph 4.0 mph 44 % 0.00 in
12:20 74.5 °F 51.1 °F 30.13 in SSE 1.0 mph 4.0 mph 44 % 0.00 in
12:25 75.0 °F 50.4 °F 30.13 in WNW 1.0 mph 5.0 mph 42 % 0.00 in
12:30 75.9 °F 49.8 °F 30.13 in WNW 2.0 mph 5.0 mph 40 % 0.00 in
12:35 75.4 °F 48.7 °F 30.13 in Calm   4.0 mph 39 % 0.00 in
12:40 74.7 °F 50.0 °F 30.13 in Calm   5.0 mph 42 % 0.00 in
12:45 74.8 °F 48.2 °F 30.13 in West 1.0 mph 5.0 mph 39 % 0.00 in
12:50 75.0 °F 48.4 °F 30.12 in WSW 1.0 mph 5.0 mph 39 % 0.00 in
12:55 76.3 °F 50.2 °F 30.12 in SSE 1.0 mph 4.0 mph 40 % 0.00 in
13:00 77.0 °F 48.7 °F 30.12 in NW 3.0 mph 5.0 mph 37 % 0.00 in
13:05 75.7 °F 49.1 °F 30.12 in SW 1.0 mph 5.0 mph 39 % 0.00 in
13:10 75.7 °F 47.7 °F 30.12 in WNW 2.0 mph 5.0 mph 37 % 0.00 in
13:15 75.9 °F 48.6 °F 30.12 in SSE 1.0 mph 5.0 mph 38 % 0.00 in
13:20 76.5 °F 47.5 °F 30.11 in WNW 4.0 mph 5.0 mph 36 % 0.00 in
13:25 75.7 °F 49.1 °F 30.11 in Calm   6.0 mph 39 % 0.00 in
13:30 76.3 °F 48.7 °F 30.10 in NNW 1.0 mph 6.0 mph 38 % 0.00 in
13:35 76.3 °F 47.3 °F 30.11 in WNW 2.0 mph 6.0 mph 36 % 0.00 in
13:40 76.1 °F 48.6 °F 30.10 in SW 1.0 mph 5.0 mph 38 % 0.00 in
13:45 76.8 °F 49.3 °F 30.09 in WNW 4.0 mph 5.0 mph 38 % 0.00 in
13:50 77.0 °F 48.7 °F 30.09 in WNW 1.0 mph 5.0 mph 37 % 0.00 in
13:55 76.8 °F 47.8 °F 30.09 in Calm   5.0 mph 36 % 0.00 in
14:00 77.0 °F 48.0 °F 30.09 in NW 2.0 mph 5.0 mph 36 % 0.00 in
14:05 77.2 °F 48.2 °F 30.09 in NW 4.0 mph 5.0 mph 36 % 0.00 in
14:10 76.6 °F 49.1 °F 30.09 in NNW 2.0 mph 6.0 mph 38 % 0.00 in
14:15 76.6 °F 46.9 °F 30.09 in West 1.0 mph 6.0 mph 35 % 0.00 in
14:20 76.6 °F 49.1 °F 30.08 in Calm   6.0 mph 38 % 0.00 in
14:25 77.2 °F 47.5 °F 30.08 in WNW 2.0 mph 6.0 mph 35 % 0.00 in
14:30 77.2 °F 46.6 °F 30.08 in NW 1.0 mph 5.0 mph 34 % 0.00 in
14:35 77.0 °F 45.7 °F 30.08 in Calm   5.0 mph 33 % 0.00 in
14:40 77.5 °F 49.3 °F 30.08 in NNE 2.0 mph 5.0 mph 37 % 0.00 in
14:45 77.7 °F 48.6 °F 30.08 in ENE 1.0 mph 5.0 mph 36 % 0.00 in
14:51 77.7 °F 49.5 °F 30.07 in NNW 3.0 mph 6.0 mph 37 % 0.00 in
14:56 77.7 °F 49.5 °F 30.07 in Calm   6.0 mph 37 % 0.00 in
15:01 78.1 °F 49.6 °F 30.07 in Calm   6.0 mph 37 % 0.00 in
15:06 77.7 °F 49.5 °F 30.07 in NNW 5.0 mph 5.0 mph 37 % 0.00 in
15:11 77.7 °F 48.6 °F 30.07 in NNW 3.0 mph 6.0 mph 36 % 0.00 in
15:16 77.9 °F 48.7 °F 30.07 in Calm   6.0 mph 36 % 0.00 in
15:21 78.1 °F 48.9 °F 30.07 in WNW 5.0 mph 6.0 mph 36 % 0.00 in
15:26 77.5 °F 48.6 °F 30.07 in Calm   6.0 mph 36 % 0.00 in
15:31 77.9 °F 50.2 °F 30.07 in North 1.0 mph 6.0 mph 38 % 0.00 in
15:36 78.1 °F 49.6 °F 30.06 in NW 2.0 mph 6.0 mph 37 % 0.00 in
15:46 78.6 °F 49.5 °F 30.06 in Calm   4.0 mph 36 % 0.00 in
15:51 78.8 °F 50.4 °F 30.06 in NW 3.0 mph 4.0 mph 37 % 0.00 in
15:56 78.4 °F 51.4 °F 30.06 in NE 4.0 mph 5.0 mph 39 % 0.00 in
16:01 78.6 °F 49.5 °F 30.05 in SSW 2.0 mph 5.0 mph 36 % 0.00 in
16:06 79.3 °F 50.7 °F 30.06 in SSW 1.0 mph 5.0 mph 37 % 0.00 in
16:11 79.5 °F 49.5 °F 30.05 in SE 1.0 mph 5.0 mph 35 % 0.00 in
16:16 79.5 °F 50.9 °F 30.05 in Calm   5.0 mph 37 % 0.00 in
16:21 79.9 °F 51.3 °F 30.05 in Calm   4.0 mph 37 % 0.00 in
16:26 79.5 °F 49.5 °F 30.05 in NW 2.0 mph 4.0 mph 35 % 0.00 in
16:31 78.8 °F 49.6 °F 30.05 in Calm   5.0 mph 36 % 0.00 in
16:36 79.2 °F 50.7 °F 30.05 in NW 2.0 mph 5.0 mph 37 % 0.00 in
16:41 79.3 °F 49.3 °F 30.04 in Calm   5.0 mph 35 % 0.00 in
16:46 79.5 °F 50.9 °F 30.04 in Calm   5.0 mph 37 % 0.00 in
16:51 80.1 °F 50.0 °F 30.04 in SSE 1.0 mph 5.0 mph 35 % 0.00 in
16:56 80.1 °F 50.7 °F 30.03 in Calm   3.0 mph 36 % 0.00 in
17:01 80.2 °F 50.9 °F 30.04 in SSW 1.0 mph 3.0 mph 36 % 0.00 in
17:06 79.9 °F 50.5 °F 30.04 in Calm   4.0 mph 36 % 0.00 in
17:11 79.5 °F 50.9 °F 30.03 in SSW 3.0 mph 4.0 mph 37 % 0.00 in
17:16 79.2 °F 49.1 °F 30.03 in SSE 2.0 mph 4.0 mph 35 % 0.00 in
17:21 79.0 °F 50.5 °F 30.03 in Calm   3.0 mph 37 % 0.00 in
17:26 78.8 °F 50.4 °F 30.03 in SSW 2.0 mph 3.0 mph 37 % 0.00 in
17:31 78.6 °F 50.2 °F 30.03 in SSW 1.0 mph 3.0 mph 37 % 0.00 in
17:37 78.3 °F 50.5 °F 30.03 in Calm   3.0 mph 38 % 0.00 in
17:42 77.9 °F 49.5 °F 30.03 in SSW 1.0 mph 3.0 mph 37 % 0.00 in
17:47 77.5 °F 49.3 °F 30.03 in Calm   2.0 mph 37 % 0.00 in
17:52 77.2 °F 49.6 °F 30.03 in Calm   2.0 mph 38 % 0.00 in
17:56 76.8 °F 49.3 °F 30.03 in Calm   2.0 mph 38 % 0.00 in
18:01 76.5 °F 48.9 °F 30.03 in Calm   1.0 mph 38 % 0.00 in
18:06 75.9 °F 49.8 °F 30.03 in Calm   1.0 mph 40 % 0.00 in
18:11 75.7 °F 50.4 °F 30.03 in Calm   1.0 mph 41 % 0.00 in
18:17 75.4 °F 50.0 °F 30.03 in Calm   1.0 mph 41 % 0.00 in
18:22 74.8 °F 49.6 °F 30.03 in Calm   1.0 mph 41 % 0.00 in
18:27 74.1 °F 51.4 °F 30.03 in Calm   1.0 mph 45 % 0.00 in
18:32 73.6 °F 53.8 °F 30.03 in Calm   1.0 mph 50 % 0.00 in
18:37 72.7 °F 52.3 °F 30.03 in Calm   1.0 mph 49 % 0.00 in
18:42 71.8 °F 52.2 °F 30.04 in Calm   1.0 mph 50 % 0.00 in
18:47 71.1 °F 52.0 °F 30.04 in Calm   1.0 mph 51 % 0.00 in
18:52 70.2 °F 52.2 °F 30.04 in Calm     53 % 0.00 in
18:57 69.6 °F 54.1 °F 30.04 in Calm     58 % 0.00 in
19:01 69.3 °F 54.3 °F 30.04 in Calm     59 % 0.00 in
19:06 68.5 °F 53.6 °F 30.04 in Calm     59 % 0.00 in
19:11 67.8 °F 53.4 °F 30.05 in Calm     60 % 0.00 in
19:16 67.3 °F 55.0 °F 30.05 in Calm   1.0 mph 65 % 0.00 in
19:22 67.1 °F 54.5 °F 30.05 in Calm   1.0 mph 64 % 0.00 in
19:26 66.7 °F 55.0 °F 30.05 in Calm   1.0 mph 66 % 0.00 in
19:31 66.6 °F 54.9 °F 30.05 in Calm   1.0 mph 66 % 0.00 in
19:37 66.2 °F 54.9 °F 30.05 in Calm   1.0 mph 67 % 0.00 in
19:41 65.8 °F 55.0 °F 30.06 in Calm   1.0 mph 68 % 0.00 in
19:47 65.7 °F 54.9 °F 30.06 in Calm   1.0 mph 68 % 0.00 in
19:52 65.5 °F 55.0 °F 30.06 in Calm   1.0 mph 69 % 0.00 in
19:56 65.1 °F 54.7 °F 30.06 in Calm   1.0 mph 69 % 0.00 in
20:02 64.6 °F 54.1 °F 30.06 in Calm     69 % 0.00 in
20:07 64.0 °F 54.1 °F 30.05 in Calm     70 % 0.00 in
20:12 63.7 °F 54.5 °F 30.05 in Calm     72 % 0.00 in
20:17 63.1 °F 54.0 °F 30.05 in Calm     72 % 0.00 in
20:22 63.0 °F 54.9 °F 30.05 in Calm     75 % 0.00 in
20:27 62.8 °F 54.7 °F 30.05 in Calm     75 % 0.00 in
20:32 62.6 °F 54.9 °F 30.06 in Calm     76 % 0.00 in
20:37 62.2 °F 54.1 °F 30.06 in Calm     75 % 0.00 in
20:41 62.1 °F 54.3 °F 30.05 in Calm     76 % 0.00 in
20:47 61.9 °F 54.3 °F 30.06 in Calm     76 % 0.00 in
20:52 62.1 °F 54.7 °F 30.06 in Calm     77 % 0.00 in
20:57 62.2 °F 55.2 °F 30.06 in Calm   1.0 mph 78 % 0.00 in
21:01 62.4 °F 55.0 °F 30.07 in Calm   1.0 mph 77 % 0.00 in
21:06 62.2 °F 54.9 °F 30.07 in Calm   1.0 mph 77 % 0.00 in
21:12 61.9 °F 54.7 °F 30.07 in Calm     77 % 0.00 in
21:16 61.5 °F 55.2 °F 30.07 in Calm     80 % 0.00 in
21:22 61.2 °F 55.2 °F 30.07 in Calm     81 % 0.00 in
21:27 60.8 °F 54.9 °F 30.08 in Calm     81 % 0.00 in
21:32 60.3 °F 54.7 °F 30.08 in Calm     82 % 0.00 in
21:37 60.3 °F 55.8 °F 30.08 in Calm     85 % 0.00 in
21:42 60.1 °F 55.9 °F 30.09 in Calm     86 % 0.00 in
21:47 60.3 °F 56.1 °F 30.09 in Calm     86 % 0.00 in
21:52 60.6 °F 56.5 °F 30.09 in Calm     86 % 0.00 in
21:57 60.6 °F 56.5 °F 30.09 in Calm     86 % 0.00 in
22:02 60.6 °F 56.1 °F 30.09 in Calm     85 % 0.00 in
22:06 60.4 °F 56.3 °F 30.09 in Calm     86 % 0.00 in
22:12 60.3 °F 56.1 °F 30.10 in Calm     86 % 0.00 in
22:17 59.9 °F 55.8 °F 30.10 in Calm     86 % 0.00 in
22:22 59.5 °F 55.6 °F 30.10 in Calm     87 % 0.00 in
22:23 59.4 °F 55.4 °F 30.10 in Calm     87 % 0.00 in
22:28 59.2 °F 55.6 °F 30.10 in Calm     88 % 0.00 in
22:33 59.2 °F 55.6 °F 30.10 in Calm     88 % 0.00 in
22:38 59.2 °F 55.9 °F 30.10 in Calm     89 % 0.00 in
22:43 59.0 °F 55.8 °F 30.11 in Calm     89 % 0.00 in
22:48 58.6 °F 55.4 °F 30.11 in Calm     89 % 0.00 in
22:53 58.6 °F 55.9 °F 30.11 in Calm     91 % 0.00 in
22:58 58.8 °F 56.1 °F 30.11 in Calm     91 % 0.00 in
23:03 59.2 °F 56.5 °F 30.11 in Calm     91 % 0.00 in
23:08 59.4 °F 56.1 °F 30.11 in Calm   1.0 mph 89 % 0.00 in
23:13 59.2 °F 55.9 °F 30.11 in Calm   1.0 mph 89 % 0.00 in
23:18 58.8 °F 55.6 °F 30.11 in Calm   1.0 mph 89 % 0.00 in
23:23 58.6 °F 55.4 °F 30.11 in Calm     89 % 0.00 in
23:28 58.3 °F 55.4 °F 30.11 in Calm     90 % 0.00 in
23:33 57.9 °F 55.2 °F 30.11 in Calm     91 % 0.00 in
23:38 57.7 °F 54.9 °F 30.11 in Calm     90 % 0.00 in
23:43 57.4 °F 54.9 °F 30.12 in Calm     91 % 0.00 in
23:48 57.4 °F 55.0 °F 30.12 in Calm     92 % 0.00 in
23:54 57.2 °F 54.9 °F 30.12 in Calm     92 % 0.00 in
23:59 57.2 °F 55.2 °F 30.12 in Calm     93 % 0.00 in
Spring, Texas: Villages of Bridgestone
Compliments of Weather Underground - 2.75 mb

Script developed by  Jim McMurry - jmcmurry@mwt.net Adapted for the template by  Wim van der Kuil - Leuven-Template.eu

You find our weather info also at:

UK Metoffice

WeatherCloud

Weather Underground

Mid-South Weather Network

AWEKAS

Citizen Weather Observer Program (CWOP)

HAMweather, WeatherForYou, PWS Weather

Equipment we use:

Weather-station
Davis Vantage Vue

Weather-program
Meteohub

Weather-server
Debian 7.9 x86 (Guest)

Provider
DreamHost

Davis Vantage Vue

Meteohub

Debian 7.9 x86 (Guest)

DreamHost